< < Back
Terminal Aerodrome Forecast


Current Version              Previous Versions:   1  2  3  4  5  6  7  8  9  

Terminal Aerodrome Forecast

338
FTUS44 KMRX 290949 AAA
TAFTYS
TAF AMD
KTYS 290949Z 2910/3006 00000KT 4SM BR SCT003
     FM291400 23006KT P6SM SCT050
     FM300000 VRB03KT P6SM SCT250=

Latest METAR

564
SAUS80 KWBC 292000 CCA
MTRTYS
METAR KTYS 291953Z 35007KT 290V010 10SM SCT055 SCT250 33/18 A3004 RMK
AO2 SLP158 T03280178


USA.gov is the U.S. government's official web portal to all federal, state and local government web resources and services.